createdAt,value
2022-10-11T00:00:48.827Z,63.70
2022-10-11T00:03:15.513Z,62.90
2022-10-11T00:05:42.176Z,63.00
2022-10-11T00:08:08.844Z,63.00
2022-10-11T00:10:35.513Z,63.10
2022-10-11T00:13:02.231Z,63.30
2022-10-11T00:15:28.925Z,63.30
2022-10-11T00:17:55.931Z,63.30
2022-10-11T00:20:22.755Z,63.30
2022-10-11T00:22:49.527Z,63.30
2022-10-11T00:25:16.728Z,63.40
2022-10-11T00:27:43.466Z,63.30
2022-10-11T00:30:10.610Z,63.40
2022-10-11T00:32:37.895Z,63.40
2022-10-11T00:35:06.087Z,63.50
2022-10-11T00:37:37.719Z,63.60
2022-10-11T00:40:07.241Z,64.40
2022-10-11T00:42:34.030Z,63.60
2022-10-11T00:45:31.693Z,63.80
2022-10-11T00:48:10.257Z,64.00
2022-10-11T00:50:36.925Z,63.90
2022-10-11T00:53:06.327Z,63.90
2022-10-11T00:55:35.286Z,64.10
2022-10-11T00:58:01.973Z,64.10
2022-10-11T01:00:28.639Z,64.10
2022-10-11T01:02:55.295Z,64.20
2022-10-11T01:05:30.338Z,64.20
2022-10-11T01:07:58.953Z,64.30
2022-10-11T01:10:26.009Z,64.40
2022-10-11T01:13:08.678Z,64.40
2022-10-11T01:15:59.252Z,64.60
2022-10-11T01:18:35.019Z,64.40
2022-10-11T01:21:12.590Z,64.40
2022-10-11T01:23:54.305Z,64.40
2022-10-11T01:26:32.705Z,64.60
2022-10-11T01:29:36.936Z,64.50
2022-10-11T01:32:17.261Z,64.70
2022-10-11T01:35:23.075Z,64.50
2022-10-11T01:38:02.805Z,64.80
2022-10-11T01:40:39.122Z,64.90
2022-10-11T01:43:05.798Z,64.80
2022-10-11T01:45:33.803Z,64.70
2022-10-11T01:48:11.589Z,64.80
2022-10-11T01:50:43.219Z,65.00
2022-10-11T01:53:12.942Z,65.00
2022-10-11T01:55:55.345Z,65.00
2022-10-11T01:58:41.637Z,65.30
2022-10-11T02:01:08.429Z,65.20
2022-10-11T02:04:07.454Z,65.20
2022-10-11T02:06:59.182Z,65.40
2022-10-11T02:09:45.873Z,66.50
2022-10-11T02:12:13.290Z,65.50
2022-10-11T02:14:44.007Z,65.40
2022-10-11T02:17:13.247Z,65.40
2022-10-11T02:19:42.766Z,65.50
2022-10-11T02:22:15.284Z,65.50
2022-10-11T02:24:42.849Z,65.50
2022-10-11T02:27:09.526Z,65.50
2022-10-11T02:29:37.916Z,65.50
2022-10-11T02:32:04.806Z,65.70
2022-10-11T02:34:32.373Z,65.70
2022-10-11T02:37:02.376Z,66.10
2022-10-11T02:39:40.649Z,65.90
2022-10-11T02:42:09.807Z,66.00
2022-10-11T02:44:39.994Z,65.90
2022-10-11T02:47:06.741Z,66.00
2022-10-11T02:49:33.415Z,66.00
2022-10-11T02:52:00.091Z,66.10
2022-10-11T02:54:26.894Z,66.10
2022-10-11T02:56:53.560Z,66.20
2022-10-11T02:59:20.222Z,66.30
2022-10-11T03:01:47.010Z,66.30
2022-10-11T03:04:13.742Z,66.30
2022-10-11T03:06:40.409Z,66.30
2022-10-11T03:09:07.270Z,66.30
2022-10-11T03:11:33.939Z,66.40
2022-10-11T03:14:00.653Z,66.30
2022-10-11T03:16:27.517Z,66.50
2022-10-11T03:18:54.175Z,66.50
2022-10-11T03:21:20.825Z,66.50
2022-10-11T03:23:47.522Z,66.50
2022-10-11T03:26:14.152Z,66.50
2022-10-11T03:28:40.993Z,66.60
2022-10-11T03:31:07.818Z,66.60
2022-10-11T03:33:34.517Z,66.50
2022-10-11T03:36:01.156Z,66.50
2022-10-11T03:38:27.840Z,66.60
2022-10-11T03:40:54.677Z,66.60
2022-10-11T03:43:21.365Z,66.70
2022-10-11T03:45:48.023Z,66.80
2022-10-11T03:48:14.992Z,66.80
2022-10-11T03:50:41.675Z,66.90
2022-10-11T03:53:08.431Z,66.90
2022-10-11T03:55:38.466Z,67.00
2022-10-11T03:58:05.280Z,67.00
2022-10-11T04:00:32.727Z,67.10
2022-10-11T04:02:59.397Z,67.20
2022-10-11T04:05:26.221Z,67.20
2022-10-11T04:07:52.922Z,67.20
2022-10-11T04:10:19.649Z,67.30
2022-10-11T04:12:46.664Z,67.30
2022-10-11T04:15:13.456Z,67.20
2022-10-11T04:17:47.973Z,67.30
2022-10-11T04:20:15.050Z,67.30
2022-10-11T04:22:41.861Z,67.40
2022-10-11T04:25:09.152Z,67.40
2022-10-11T04:27:36.103Z,67.40
2022-10-11T04:30:03.361Z,67.40
2022-10-11T04:32:30.061Z,67.60
2022-10-11T04:34:56.724Z,67.60
2022-10-11T04:37:23.392Z,67.50
2022-10-11T04:39:50.089Z,67.60
2022-10-11T04:42:16.776Z,67.70
2022-10-11T04:44:43.432Z,67.70
2022-10-11T04:47:10.173Z,67.70
2022-10-11T04:49:37.989Z,67.90
2022-10-11T04:52:04.736Z,68.00
2022-10-11T04:54:31.376Z,68.00
2022-10-11T04:56:58.033Z,68.00
2022-10-11T04:59:24.677Z,68.00
2022-10-11T05:01:51.423Z,68.10
2022-10-11T05:04:18.105Z,68.00
2022-10-11T05:06:44.884Z,68.10
2022-10-11T05:09:11.588Z,68.10
2022-10-11T05:11:38.277Z,68.20
2022-10-11T05:14:04.940Z,68.20
2022-10-11T05:16:31.616Z,68.20
2022-10-11T05:18:58.302Z,68.10
2022-10-11T05:21:28.332Z,68.10
2022-10-11T05:23:55.406Z,68.10
2022-10-11T05:26:22.387Z,68.10
2022-10-11T05:28:49.086Z,68.00
2022-10-11T05:31:16.242Z,68.10
2022-10-11T05:33:43.015Z,68.00
2022-10-11T05:36:09.970Z,68.10
2022-10-11T05:38:36.786Z,68.20
2022-10-11T05:41:04.042Z,68.30
2022-10-11T05:43:30.899Z,68.40
2022-10-11T05:45:57.762Z,68.50
2022-10-11T05:48:24.452Z,68.50
2022-10-11T05:50:51.183Z,69.40
2022-10-11T05:53:17.840Z,69.30
2022-10-11T05:55:44.718Z,68.50
2022-10-11T05:58:13.803Z,68.50
2022-10-11T06:00:40.591Z,68.70
2022-10-11T06:03:07.629Z,68.70
2022-10-11T06:05:34.802Z,68.70
2022-10-11T06:08:02.277Z,68.70
2022-10-11T06:10:29.150Z,68.70
2022-10-11T06:12:55.825Z,68.90
2022-10-11T06:15:22.516Z,68.70
2022-10-11T06:17:49.224Z,68.70
2022-10-11T06:20:15.930Z,68.90
2022-10-11T06:22:42.579Z,69.00
2022-10-11T06:25:09.602Z,69.00
2022-10-11T06:27:36.303Z,69.00
2022-10-11T06:30:03.432Z,69.00
2022-10-11T06:32:30.082Z,69.10
2022-10-11T06:34:56.746Z,69.10
2022-10-11T06:37:23.403Z,69.00
2022-10-11T06:39:50.331Z,69.20
2022-10-11T06:42:17.027Z,69.20
2022-10-11T06:44:43.862Z,69.20
2022-10-11T06:47:10.556Z,69.20
2022-10-11T06:49:37.247Z,69.20
2022-10-11T06:52:03.973Z,69.30
2022-10-11T06:54:30.724Z,69.20
2022-10-11T06:56:57.401Z,69.20
2022-10-11T06:59:24.110Z,69.30
2022-10-11T07:01:50.782Z,69.30
2022-10-11T07:04:17.520Z,69.30
2022-10-11T07:06:44.227Z,69.30
2022-10-11T07:09:10.994Z,69.20
2022-10-11T07:11:37.679Z,69.20
2022-10-11T07:14:05.540Z,69.20
2022-10-11T07:16:32.204Z,69.10
2022-10-11T07:19:00.766Z,69.10
2022-10-11T07:21:28.221Z,69.10
2022-10-11T07:23:54.925Z,69.10
2022-10-11T07:26:21.598Z,69.10
2022-10-11T07:28:48.390Z,69.10
2022-10-11T07:31:20.292Z,69.20
2022-10-11T07:33:47.068Z,69.20
2022-10-11T07:36:13.919Z,69.20
2022-10-11T07:38:44.248Z,69.20
2022-10-11T07:41:11.025Z,69.30
2022-10-11T07:43:37.962Z,69.50
2022-10-11T07:46:05.276Z,69.50
2022-10-11T07:48:33.088Z,69.60
2022-10-11T07:51:12.661Z,69.50
2022-10-11T07:53:44.001Z,69.70
2022-10-11T07:56:11.424Z,69.70
2022-10-11T07:58:38.524Z,69.80
2022-10-11T08:01:05.442Z,69.80
2022-10-11T08:03:32.241Z,69.80
2022-10-11T08:06:03.186Z,69.80
2022-10-11T08:08:30.197Z,69.90
2022-10-11T08:10:57.846Z,69.70
2022-10-11T08:13:24.556Z,69.80
2022-10-11T08:15:51.419Z,69.90
2022-10-11T08:18:18.154Z,69.80
2022-10-11T08:20:45.224Z,69.70
2022-10-11T08:23:12.045Z,69.60
2022-10-11T08:25:40.632Z,69.50
2022-10-11T08:28:07.352Z,69.50
2022-10-11T08:30:34.308Z,69.40
2022-10-11T08:33:05.001Z,69.20
2022-10-11T08:35:34.425Z,69.10
2022-10-11T08:38:01.115Z,69.00
2022-10-11T08:40:30.473Z,68.90
2022-10-11T08:43:08.180Z,68.90
2022-10-11T08:45:52.217Z,68.90
2022-10-11T08:48:25.870Z,68.80
2022-10-11T08:50:52.794Z,68.50
2022-10-11T08:53:48.998Z,68.30
2022-10-11T08:56:16.123Z,68.10
2022-10-11T08:58:47.331Z,67.90
2022-10-11T09:01:21.730Z,67.80
2022-10-11T09:03:48.707Z,67.60
2022-10-11T09:06:43.143Z,67.30
2022-10-11T09:09:24.933Z,67.00
2022-10-11T09:12:10.086Z,66.90
2022-10-11T09:14:44.583Z,66.70
2022-10-11T09:17:11.256Z,66.50
2022-10-11T09:19:43.937Z,66.20
2022-10-11T09:22:19.790Z,65.80
2022-10-11T09:25:00.357Z,65.50
2022-10-11T09:27:50.194Z,65.30
2022-10-11T09:30:18.208Z,65.00
2022-10-11T09:33:06.377Z,64.90
2022-10-11T09:35:36.323Z,64.70
2022-10-11T09:38:43.243Z,64.60
2022-10-11T09:41:27.250Z,64.20
2022-10-11T09:43:54.001Z,63.60
2022-10-11T09:46:28.882Z,62.90
2022-10-11T09:48:55.597Z,61.40
2022-10-11T09:51:23.822Z,59.80
2022-10-11T09:54:04.709Z,58.30
2022-10-11T09:56:33.178Z,56.60
2022-10-11T09:59:29.046Z,55.60
2022-10-11T10:02:14.087Z,53.30
2022-10-11T10:05:01.742Z,51.70
2022-10-11T10:07:30.119Z,49.10
2022-10-11T10:09:56.812Z,47.90
2022-10-11T10:12:26.417Z,46.70
2022-10-11T10:15:19.104Z,45.50
2022-10-11T10:17:52.689Z,43.70
2022-10-11T10:20:35.252Z,43.30
2022-10-11T10:23:03.047Z,42.20
2022-10-11T10:25:33.137Z,42.60
2022-10-11T10:28:03.682Z,41.90
2022-10-11T10:30:35.237Z,40.90
2022-10-11T10:33:06.746Z,40.20
2022-10-11T10:35:36.319Z,39.40
2022-10-11T10:38:35.025Z,38.80
2022-10-11T10:41:03.065Z,37.80
2022-10-11T10:43:33.301Z,37.80
2022-10-11T10:46:36.916Z,36.90
2022-10-11T10:52:21.596Z,35.90
2022-10-11T10:55:08.102Z,35.30
2022-10-11T10:58:08.793Z,34.50
2022-10-11T11:00:46.951Z,34.20
2022-10-11T11:03:16.839Z,33.90
2022-10-11T11:05:46.669Z,33.80
2022-10-11T11:08:59.200Z,33.60
2022-10-11T11:11:25.874Z,32.80
2022-10-11T11:13:55.347Z,32.50
2022-10-11T11:16:27.951Z,32.10
2022-10-11T11:19:11.800Z,31.70
2022-10-11T11:21:41.894Z,31.20
2022-10-11T11:24:35.695Z,31.20
2022-10-11T11:27:30.775Z,30.40
2022-10-11T11:30:03.205Z,30.40
2022-10-11T11:32:54.538Z,30.20
2022-10-11T11:35:38.029Z,29.70
2022-10-11T11:38:13.007Z,29.50
2022-10-11T11:40:41.626Z,29.60
2022-10-11T11:43:14.573Z,29.50
2022-10-11T11:45:52.304Z,29.10
2022-10-11T11:48:20.789Z,29.20
2022-10-11T11:50:55.725Z,28.40
2022-10-11T11:53:29.873Z,28.20
2022-10-11T11:56:28.892Z,28.10
2022-10-11T11:59:25.238Z,27.80
2022-10-11T12:02:27.199Z,27.50
2022-10-11T12:04:54.022Z,27.40
2022-10-11T12:07:22.193Z,27.70
2022-10-11T12:09:53.495Z,27.50
2022-10-11T12:12:34.412Z,27.40
2022-10-11T12:15:24.483Z,27.10
2022-10-11T12:17:57.080Z,27.10
2022-10-11T12:20:27.703Z,26.80
2022-10-11T12:22:57.167Z,26.60
2022-10-11T12:25:44.115Z,26.40
2022-10-11T12:29:07.714Z,26.30
2022-10-11T12:31:35.358Z,26.00
2022-10-11T12:34:02.076Z,25.90
2022-10-11T12:36:28.711Z,25.60
2022-10-11T12:39:21.859Z,25.70
2022-10-11T12:41:48.492Z,26.40
2022-10-11T12:44:26.038Z,26.70
2022-10-11T12:46:52.669Z,26.30
2022-10-11T12:49:37.149Z,26.10
2022-10-11T12:52:35.622Z,25.40
2022-10-11T12:55:35.253Z,24.90
2022-10-11T12:58:01.916Z,24.50
2022-10-11T13:00:54.734Z,24.60
2022-10-11T13:03:40.955Z,24.20
2022-10-11T13:06:20.668Z,24.00
2022-10-11T13:09:01.117Z,23.70
2022-10-11T13:11:30.355Z,23.50
2022-10-11T13:13:58.914Z,23.30
2022-10-11T13:16:27.905Z,23.50
2022-10-11T13:18:57.185Z,24.40
2022-10-11T13:21:28.339Z,25.00
2022-10-11T13:23:58.995Z,25.90
2022-10-11T13:26:27.065Z,26.70
2022-10-11T13:28:53.764Z,27.30
2022-10-11T13:31:20.499Z,28.00
2022-10-11T13:33:47.307Z,28.50
2022-10-11T13:36:16.049Z,28.90
2022-10-11T13:38:42.752Z,28.80
2022-10-11T13:41:09.536Z,28.30
2022-10-11T13:43:36.260Z,27.40
2022-10-11T13:46:03.457Z,26.70
2022-10-11T13:48:32.297Z,26.00
2022-10-11T13:51:13.924Z,25.40
2022-10-11T13:54:00.225Z,24.60
2022-10-11T13:56:27.955Z,24.40
2022-10-11T13:58:54.663Z,24.60
2022-10-11T14:01:22.390Z,24.60
2022-10-11T14:03:58.130Z,24.30
2022-10-11T14:06:24.986Z,24.00
2022-10-11T14:08:54.310Z,24.00
2022-10-11T14:11:37.995Z,23.50
2022-10-11T14:14:32.641Z,23.40
2022-10-11T14:17:10.676Z,23.90
2022-10-11T14:19:37.499Z,24.70
2022-10-11T14:22:05.323Z,25.30
2022-10-11T14:24:31.972Z,25.90
2022-10-11T14:26:58.837Z,26.50
2022-10-11T14:29:25.511Z,26.90
2022-10-11T14:31:53.024Z,27.40
2022-10-11T14:34:20.715Z,27.80
2022-10-11T14:36:47.628Z,28.20
2022-10-11T14:39:16.080Z,28.60
2022-10-11T14:41:42.853Z,29.00
2022-10-11T14:44:09.571Z,29.40
2022-10-11T14:46:36.428Z,29.80
2022-10-11T14:49:03.078Z,30.10
2022-10-11T14:51:32.307Z,30.50
2022-10-11T14:53:58.968Z,30.80
2022-10-11T14:56:25.685Z,31.00
2022-10-11T14:58:52.403Z,31.40
2022-10-11T15:01:19.265Z,31.80
2022-10-11T15:03:46.071Z,32.10
2022-10-11T15:06:18.536Z,32.20
2022-10-11T15:08:45.256Z,32.60
2022-10-11T15:11:13.268Z,32.70
2022-10-11T15:13:39.973Z,33.00
2022-10-11T15:16:07.591Z,33.20
2022-10-11T15:18:34.420Z,33.40
2022-10-11T15:21:01.098Z,33.40
2022-10-11T15:23:27.988Z,33.70
2022-10-11T15:25:54.720Z,33.90
2022-10-11T15:28:27.818Z,34.20
2022-10-11T15:30:54.709Z,34.40
2022-10-11T15:33:21.732Z,34.60
2022-10-11T15:35:48.464Z,34.70
2022-10-11T15:38:25.205Z,34.80
2022-10-11T15:40:52.148Z,35.20
2022-10-11T15:43:24.187Z,35.30
2022-10-11T15:45:51.565Z,35.50
2022-10-11T15:48:18.609Z,35.30
2022-10-11T15:50:45.451Z,35.60
2022-10-11T15:53:12.820Z,35.80
2022-10-11T15:55:44.668Z,36.00
2022-10-11T15:58:19.350Z,36.20
2022-10-11T16:00:46.928Z,36.20
2022-10-11T16:03:13.984Z,36.40
2022-10-11T16:05:40.712Z,36.70
2022-10-11T16:08:07.590Z,36.80
2022-10-11T16:10:34.444Z,36.90
2022-10-11T16:13:01.113Z,37.10
2022-10-11T16:15:27.857Z,37.30
2022-10-11T16:17:54.605Z,37.40
2022-10-11T16:20:21.409Z,37.60
2022-10-11T16:22:51.754Z,37.70
2022-10-11T16:25:19.431Z,37.90
2022-10-11T16:27:46.371Z,38.10
2022-10-11T16:30:13.644Z,38.30
2022-10-11T16:32:40.357Z,38.60
2022-10-11T16:35:07.727Z,39.00
2022-10-11T16:37:34.568Z,39.20
2022-10-11T16:40:01.236Z,39.30
2022-10-11T16:42:27.972Z,39.60
2022-10-11T16:44:54.629Z,39.90
2022-10-11T16:47:21.361Z,40.10
2022-10-11T16:49:48.346Z,40.40
2022-10-11T16:52:19.549Z,40.60
2022-10-11T16:54:46.710Z,41.00
2022-10-11T16:57:14.651Z,41.20
2022-10-11T16:59:41.419Z,41.40
2022-10-11T17:02:08.510Z,41.70
2022-10-11T17:04:35.213Z,42.00
2022-10-11T17:07:01.961Z,42.20
2022-10-11T17:09:28.720Z,42.60
2022-10-11T17:11:55.396Z,42.80
2022-10-11T17:14:22.089Z,43.10
2022-10-11T17:16:48.793Z,43.20
2022-10-11T17:19:15.732Z,43.50
2022-10-11T17:21:42.568Z,43.70
2022-10-11T17:24:09.502Z,44.10
2022-10-11T17:26:36.239Z,44.20
2022-10-11T17:29:02.934Z,44.50
2022-10-11T17:31:29.860Z,44.70
2022-10-11T17:33:59.919Z,44.90
2022-10-11T17:36:31.452Z,45.30
2022-10-11T17:38:59.032Z,45.70
2022-10-11T17:41:30.883Z,45.80
2022-10-11T17:43:58.650Z,45.90
2022-10-11T17:46:25.346Z,46.10
2022-10-11T17:48:52.666Z,46.40
2022-10-11T17:51:19.433Z,46.80
2022-10-11T17:53:49.750Z,46.90
2022-10-11T17:56:19.685Z,47.30
2022-10-11T17:58:48.556Z,47.50
2022-10-11T18:01:16.935Z,47.50
2022-10-11T18:03:43.972Z,47.80
2022-10-11T18:06:12.500Z,48.00
2022-10-11T18:08:40.594Z,48.50
2022-10-11T18:11:15.351Z,48.60
2022-10-11T18:13:42.195Z,49.00
2022-10-11T18:16:09.320Z,49.00
2022-10-11T18:18:36.437Z,49.20
2022-10-11T18:21:03.260Z,49.30
2022-10-11T18:23:29.952Z,49.70
2022-10-11T18:25:56.634Z,49.80
2022-10-11T18:28:23.354Z,50.70
2022-10-11T18:30:50.067Z,50.20
2022-10-11T18:33:17.009Z,50.40
2022-10-11T18:35:43.683Z,50.60
2022-10-11T18:38:10.369Z,50.70
2022-10-11T18:40:37.901Z,50.90
2022-10-11T18:43:04.875Z,51.10
2022-10-11T18:45:31.605Z,51.30
2022-10-11T18:47:58.315Z,51.50
2022-10-11T18:50:25.533Z,51.50
2022-10-11T18:52:52.287Z,51.70
2022-10-11T18:55:18.958Z,51.80
2022-10-11T18:57:45.639Z,52.00
2022-10-11T19:00:37.768Z,52.10
2022-10-11T19:02:59.640Z,52.20
2022-10-11T19:05:26.418Z,52.30
2022-10-11T19:07:53.164Z,52.30
2022-10-11T19:10:19.835Z,52.60
2022-10-11T19:12:46.635Z,52.70
2022-10-11T19:15:13.290Z,53.00
2022-10-11T19:17:39.980Z,53.10
2022-10-11T19:20:07.093Z,53.20
2022-10-11T19:22:33.774Z,53.40
2022-10-11T19:25:00.429Z,53.40
2022-10-11T19:27:27.107Z,54.30
2022-10-11T19:29:53.769Z,53.70
2022-10-11T19:32:20.536Z,53.70
2022-10-11T19:34:47.302Z,53.80
2022-10-11T19:37:14.043Z,54.00
2022-10-11T19:39:40.700Z,54.10
2022-10-11T19:42:07.481Z,54.20
2022-10-11T19:44:37.148Z,54.40
2022-10-11T19:47:06.443Z,54.40
2022-10-11T19:49:33.180Z,54.50
2022-10-11T19:51:59.850Z,54.50
2022-10-11T19:54:26.640Z,54.60
2022-10-11T19:56:53.381Z,54.70
2022-10-11T19:59:20.072Z,54.70
2022-10-11T20:01:51.305Z,54.90
2022-10-11T20:04:47.161Z,55.00
2022-10-11T20:07:06.404Z,54.90
2022-10-11T20:09:33.092Z,54.90
2022-10-11T20:11:59.788Z,55.00
2022-10-11T20:14:26.545Z,55.70
2022-10-11T20:16:53.223Z,55.20
2022-10-11T20:19:19.960Z,55.30
2022-10-11T20:21:47.061Z,55.50
2022-10-11T20:24:13.773Z,55.50
2022-10-11T20:26:40.468Z,55.70
2022-10-11T20:29:07.227Z,55.70
2022-10-11T20:31:34.590Z,55.80
2022-10-11T20:34:02.243Z,55.90
2022-10-11T20:36:29.242Z,56.00
2022-10-11T20:38:56.542Z,56.10
2022-10-11T20:41:24.971Z,56.10
2022-10-11T20:43:54.463Z,56.30
2022-10-11T20:46:25.905Z,56.40
2022-10-11T20:49:01.319Z,56.40
2022-10-11T20:51:29.036Z,56.50
2022-10-11T20:53:55.750Z,57.30
2022-10-11T20:56:22.642Z,56.70
2022-10-11T20:58:53.845Z,56.70
2022-10-11T21:01:22.450Z,56.90
2022-10-11T21:03:49.258Z,56.90
2022-10-11T21:06:16.026Z,57.00
2022-10-11T21:08:42.731Z,57.10
2022-10-11T21:11:10.797Z,57.20
2022-10-11T21:13:37.562Z,57.30
2022-10-11T21:16:12.090Z,57.30
2022-10-11T21:18:38.840Z,57.50
2022-10-11T21:21:10.364Z,57.50
2022-10-11T21:23:37.289Z,57.50
2022-10-11T21:26:04.886Z,57.60
2022-10-11T21:28:31.640Z,57.80
2022-10-11T21:31:13.216Z,57.80
2022-10-11T21:33:40.330Z,58.10
2022-10-11T21:36:08.811Z,57.90
2022-10-11T21:38:35.925Z,58.00
2022-10-11T21:41:06.666Z,58.00
2022-10-11T21:43:34.339Z,58.30
2022-10-11T21:46:10.953Z,58.40
2022-10-11T21:48:37.837Z,58.60
2022-10-11T21:51:04.845Z,58.60
2022-10-11T21:53:31.580Z,58.70
2022-10-11T21:55:58.947Z,58.60
2022-10-11T21:58:25.789Z,58.70
2022-10-11T22:00:52.797Z,58.70
2022-10-11T22:03:19.600Z,58.80
2022-10-11T22:05:46.798Z,58.90
2022-10-11T22:08:14.198Z,59.00
2022-10-11T22:10:47.065Z,59.00
2022-10-11T22:13:13.719Z,59.10
2022-10-11T22:15:40.348Z,59.00
2022-10-11T22:18:07.095Z,58.90
2022-10-11T22:20:33.810Z,59.00
2022-10-11T22:23:00.541Z,59.10
2022-10-11T22:25:27.217Z,59.10
2022-10-11T22:27:53.978Z,59.20
2022-10-11T22:30:20.685Z,59.30
2022-10-11T22:32:47.417Z,59.30
2022-10-11T22:35:14.163Z,59.40
2022-10-11T22:37:40.829Z,59.40
2022-10-11T22:40:08.389Z,59.50
2022-10-11T22:42:35.090Z,59.60
2022-10-11T22:45:01.794Z,59.70
2022-10-11T22:47:28.458Z,59.80
2022-10-11T22:49:55.133Z,59.80
2022-10-11T22:52:21.891Z,59.90
2022-10-11T22:54:48.596Z,59.90
2022-10-11T22:57:15.278Z,60.00
2022-10-11T22:59:41.962Z,60.00
2022-10-11T23:02:08.666Z,60.00
2022-10-11T23:04:35.332Z,60.40
2022-10-11T23:07:04.993Z,60.30
2022-10-11T23:09:32.104Z,60.50
2022-10-11T23:11:59.273Z,60.50
2022-10-11T23:14:25.930Z,60.50
2022-10-11T23:16:52.696Z,60.70
2022-10-11T23:19:19.468Z,60.70
2022-10-11T23:21:46.406Z,60.90
2022-10-11T23:24:13.290Z,60.90
2022-10-11T23:26:40.010Z,60.90
2022-10-11T23:29:06.678Z,60.90
2022-10-11T23:31:33.328Z,61.00
2022-10-11T23:34:00.083Z,61.00
2022-10-11T23:36:26.816Z,61.10
2022-10-11T23:38:57.658Z,61.10
2022-10-11T23:41:26.226Z,61.20
2022-10-11T23:43:52.988Z,61.20
2022-10-11T23:46:19.932Z,61.20
2022-10-11T23:48:46.606Z,61.30
2022-10-11T23:51:13.382Z,61.40
2022-10-11T23:53:40.105Z,61.50
2022-10-11T23:56:07.381Z,61.50
2022-10-11T23:58:34.033Z,61.60
